Time;durP1;ratioP1;P1;durP2;ratioP2;P2;SDS_P1;SDS_P2;PMS_P1;PMS_P2;Temp;Humidity;BMP_temperature;BMP_pressure;BME280_temperature;BME280_humidity;BME280_pressure;Samples;Min_cycle;Max_cycle;Signal;HPM_P1;HPM_P2
2024/04/08 00:00:59;;;;;;;7.57;2.20;;;;;;;;;;5386947;26;20124;-79
2024/04/08 00:03:24;;;;;;;1.30;1.00;;;;;;;;;;5392657;26;20004;-80
2024/04/08 00:05:49;;;;;;;5.47;2.30;;;;;;;;;;5366779;26;20004;-81
2024/04/08 00:08:15;;;;;;;6.07;1.98;;;;;;;;;;5389895;26;20000;-81
2024/04/08 00:10:40;;;;;;;8.32;2.00;;;;;;;;;;5365765;26;20007;-78
2024/04/08 00:13:06;;;;;;;5.45;1.90;;;;;;;;;;5409170;26;20105;-79
2024/04/08 00:15:31;;;;;;;5.75;2.00;;;;;;;;;;5382721;26;19999;-80
2024/04/08 00:17:57;;;;;;;5.07;1.70;;;;;;;;;;5393964;26;19991;-80
2024/04/08 00:20:22;;;;;;;2.85;1.42;;;;;;;;;;5395323;26;20045;-79
2024/04/08 00:22:51;;;;;;;2.95;1.38;;;;;;;;;;5387197;26;20008;-79
2024/04/08 00:25:17;;;;;;;2.72;1.10;;;;;;;;;;5397113;26;20003;-80
2024/04/08 00:27:43;;;;;;;4.97;1.75;;;;;;;;;;5389999;26;20074;-79
2024/04/08 00:30:09;;;;;;;5.75;1.52;;;;;;;;;;5366274;26;20000;-80
2024/04/08 00:32:34;;;;;;;3.60;0.82;;;;;;;;;;5352966;26;20016;-81
2024/04/08 00:34:59;;;;;;;4.40;1.38;;;;;;;;;;5395247;26;20006;-79
2024/04/08 00:37:25;;;;;;;4.82;1.75;;;;;;;;;;5386491;26;20747;-79
2024/04/08 00:39:50;;;;;;;3.58;1.40;;;;;;;;;;5351204;26;19996;-80
2024/04/08 00:42:16;;;;;;;5.53;1.45;;;;;;;;;;5380066;26;20006;-79
2024/04/08 00:44:42;;;;;;;6.50;1.77;;;;;;;;;;5393555;26;20013;-80
2024/04/08 00:47:09;;;;;;;3.35;1.50;;;;;;;;;;5389927;26;20000;-80
2024/04/08 00:49:34;;;;;;;6.43;1.70;;;;;;;;;;5376332;26;20000;-81
2024/04/08 00:52:00;;;;;;;4.50;2.00;;;;;;;;;;5388552;26;20010;-80
2024/04/08 00:54:28;;;;;;;3.35;1.67;;;;;;;;;;5392152;26;19995;-80
2024/04/08 00:56:55;;;;;;;4.70;1.77;;;;;;;;;;5391985;26;20360;-80
2024/04/08 00:59:22;;;;;;;3.85;1.52;;;;;;;;;;5392634;26;20488;-80
2024/04/08 01:01:49;;;;;;;3.20;1.65;;;;;;;;;;5390881;26;20015;-79
2024/04/08 01:04:14;;;;;;;5.05;1.40;;;;;;;;;;5395184;26;20014;-80
2024/04/08 01:06:40;;;;;;;6.75;1.73;;;;;;;;;;5373625;26;19995;-80
2024/04/08 01:09:05;;;;;;;6.47;1.33;;;;;;;;;;5393496;26;20046;-80
2024/04/08 01:11:31;;;;;;;2.70;1.33;;;;;;;;;;5361076;26;20066;-80
2024/04/08 01:13:56;;;;;;;6.80;1.92;;;;;;;;;;5378729;26;20010;-79
2024/04/08 01:16:22;;;;;;;8.07;1.95;;;;;;;;;;5393695;26;20077;-81
2024/04/08 01:18:47;;;;;;;8.10;1.83;;;;;;;;;;5388534;26;20003;-80
2024/04/08 01:21:13;;;;;;;2.88;1.10;;;;;;;;;;5398039;26;20004;-81
2024/04/08 01:23:40;;;;;;;6.22;1.95;;;;;;;;;;5385064;26;20043;-80
2024/04/08 01:26:06;;;;;;;6.22;1.70;;;;;;;;;;5389242;26;20011;-79
2024/04/08 01:28:32;;;;;;;3.80;1.63;;;;;;;;;;5358515;26;20000;-79
2024/04/08 01:31:00;;;;;;;4.90;1.70;;;;;;;;;;5351769;26;20014;-79
2024/04/08 01:33:28;;;;;;;4.70;1.92;;;;;;;;;;5394662;26;19999;-79
2024/04/08 01:35:56;;;;;;;4.97;1.90;;;;;;;;;;5388249;26;20007;-80
2024/04/08 01:38:22;;;;;;;6.65;1.85;;;;;;;;;;5387789;26;20798;-79
2024/04/08 01:40:47;;;;;;;7.82;1.90;;;;;;;;;;5354326;26;20008;-78
2024/04/08 01:43:13;;;;;;;5.70;1.88;;;;;;;;;;5353445;26;20019;-80
2024/04/08 01:45:38;;;;;;;5.05;1.67;;;;;;;;;;5343819;26;20004;-79
2024/04/08 01:48:04;;;;;;;3.35;1.50;;;;;;;;;;5396430;26;20076;-79
2024/04/08 01:50:29;;;;;;;2.40;1.38;;;;;;;;;;5395067;26;20003;-80
2024/04/08 01:52:55;;;;;;;6.85;1.40;;;;;;;;;;5367624;26;19999;-79
2024/04/08 01:55:21;;;;;;;2.58;1.33;;;;;;;;;;5393298;26;20712;-79
2024/04/08 01:57:48;;;;;;;5.25;1.80;;;;;;;;;;5380298;26;19996;-80
2024/04/08 02:00:14;;;;;;;3.38;1.40;;;;;;;;;;5387024;26;20522;-79
2024/04/08 02:02:39;;;;;;;7.43;1.83;;;;;;;;;;5387992;26;19991;-79
2024/04/08 02:05:05;;;;;;;3.65;1.77;;;;;;;;;;5414270;26;19996;-80
2024/04/08 02:07:30;;;;;;;5.88;1.90;;;;;;;;;;5373295;26;19997;-80
2024/04/08 02:09:57;;;;;;;3.83;1.73;;;;;;;;;;5407016;26;20790;-79
2024/04/08 02:12:22;;;;;;;6.20;2.13;;;;;;;;;;5380339;26;20503;-79
2024/04/08 02:14:48;;;;;;;4.45;2.22;;;;;;;;;;5362856;26;20011;-80
2024/04/08 02:17:13;;;;;;;7.72;2.30;;;;;;;;;;5400645;26;20072;-80
2024/04/08 02:19:38;;;;;;;6.32;2.70;;;;;;;;;;5396578;26;20003;-80
2024/04/08 02:22:04;;;;;;;2.92;1.75;;;;;;;;;;5415032;26;19995;-80
2024/04/08 02:24:29;;;;;;;4.53;2.10;;;;;;;;;;5369910;26;20433;-79
2024/04/08 02:26:54;;;;;;;5.20;2.10;;;;;;;;;;5366866;26;20127;-79
2024/04/08 02:29:21;;;;;;;5.20;2.60;;;;;;;;;;5393875;26;20010;-79
2024/04/08 02:31:46;;;;;;;5.50;2.25;;;;;;;;;;5385800;26;20000;-80
2024/04/08 02:34:11;;;;;;;6.40;2.45;;;;;;;;;;5395930;26;20003;-81
2024/04/08 02:36:36;;;;;;;4.95;1.90;;;;;;;;;;5394014;26;20012;-81
2024/04/08 02:39:03;;;;;;;7.45;2.95;;;;;;;;;;5397229;26;20007;-81
2024/04/08 02:41:28;;;;;;;5.80;2.08;;;;;;;;;;5396917;26;19991;-80
2024/04/08 02:43:54;;;;;;;5.15;1.80;;;;;;;;;;5396793;26;20390;-79
2024/04/08 02:46:19;;;;;;;7.35;2.55;;;;;;;;;;5394876;26;20011;-82
2024/04/08 02:48:44;;;;;;;5.75;2.05;;;;;;;;;;5385430;26;19999;-82
2024/04/08 02:51:10;;;;;;;5.45;1.88;;;;;;;;;;5400688;26;20011;-80
2024/04/08 02:53:36;;;;;;;4.10;2.10;;;;;;;;;;5397022;26;20202;-79
2024/04/08 02:56:02;;;;;;;0.85;0.73;;;;;;;;;;5401047;26;19996;-79
2024/04/08 02:58:27;;;;;;;2.17;1.10;;;;;;;;;;5403092;26;20026;-80
2024/04/08 03:00:53;;;;;;;4.95;2.50;;;;;;;;;;5390979;26;20014;-80
2024/04/08 03:03:19;;;;;;;4.82;2.25;;;;;;;;;;5399935;26;20041;-79
2024/04/08 03:05:44;;;;;;;5.60;2.45;;;;;;;;;;5387857;26;20074;-81
2024/04/08 03:08:10;;;;;;;5.13;1.70;;;;;;;;;;5362632;26;19992;-80
2024/04/08 03:10:35;;;;;;;3.13;1.80;;;;;;;;;;5397773;26;19996;-80
2024/04/08 03:13:00;;;;;;;5.63;1.80;;;;;;;;;;5393592;26;20357;-80
2024/04/08 03:15:26;;;;;;;5.10;1.92;;;;;;;;;;5358728;26;20012;-80
2024/04/08 03:17:51;;;;;;;1.98;1.20;;;;;;;;;;5388330;26;19999;-80
2024/04/08 03:20:16;;;;;;;4.78;2.03;;;;;;;;;;5393750;26;20261;-80
2024/04/08 03:22:42;;;;;;;1.25;0.95;;;;;;;;;;5381705;26;20020;-79
2024/04/08 03:25:07;;;;;;;3.92;1.38;;;;;;;;;;5353777;26;20396;-79
2024/04/08 03:27:33;;;;;;;4.68;2.30;;;;;;;;;;5344537;26;20167;-79
2024/04/08 03:29:58;;;;;;;3.60;1.45;;;;;;;;;;5399607;26;20001;-79
2024/04/08 03:32:23;;;;;;;2.95;1.50;;;;;;;;;;5366532;26;20006;-80
2024/04/08 03:34:49;;;;;;;4.75;2.00;;;;;;;;;;5391162;26;20011;-80
2024/04/08 03:37:14;;;;;;;4.13;1.70;;;;;;;;;;5387447;26;20000;-80
2024/04/08 03:39:40;;;;;;;4.55;1.60;;;;;;;;;;5341133;26;20450;-79
2024/04/08 03:42:05;;;;;;;4.05;2.00;;;;;;;;;;5394945;26;20001;-80
2024/04/08 03:44:32;;;;;;;1.85;1.52;;;;;;;;;;5393639;26;19999;-79
2024/04/08 03:46:57;;;;;;;1.60;1.38;;;;;;;;;;5365530;26;20076;-79
2024/04/08 03:49:22;;;;;;;3.88;2.03;;;;;;;;;;5394665;26;19995;-79
2024/04/08 03:51:48;;;;;;;7.35;2.40;;;;;;;;;;5359775;26;20032;-79
2024/04/08 03:54:13;;;;;;;5.30;1.77;;;;;;;;;;5388107;26;19999;-80
2024/04/08 03:56:38;;;;;;;4.63;1.95;;;;;;;;;;5389036;26;20073;-81
2024/04/08 03:59:04;;;;;;;6.68;2.00;;;;;;;;;;5390936;26;20012;-80
2024/04/08 04:01:29;;;;;;;5.35;2.20;;;;;;;;;;5395266;26;20518;-81
2024/04/08 04:03:55;;;;;;;3.42;1.50;;;;;;;;;;5395531;26;20010;-81
2024/04/08 04:06:20;;;;;;;3.25;1.52;;;;;;;;;;5390811;26;20365;-80
2024/04/08 04:08:45;;;;;;;5.18;1.88;;;;;;;;;;5392667;26;20064;-78
2024/04/08 04:11:11;;;;;;;3.22;1.90;;;;;;;;;;5351759;26;20019;-79
2024/04/08 04:13:36;;;;;;;4.30;1.58;;;;;;;;;;5388896;26;20011;-79
2024/04/08 04:16:05;;;;;;;4.72;2.60;;;;;;;;;;5376224;26;20011;-78
2024/04/08 04:18:34;;;;;;;3.83;2.10;;;;;;;;;;5392865;26;20344;-78
2024/04/08 04:20:59;;;;;;;7.68;3.08;;;;;;;;;;5391682;26;20573;-80
2024/04/08 04:23:24;;;;;;;6.55;2.15;;;;;;;;;;5394531;26;20012;-79
2024/04/08 04:25:54;;;;;;;5.07;1.90;;;;;;;;;;5393241;26;20359;-79
2024/04/08 04:28:20;;;;;;;6.55;2.40;;;;;;;;;;5369178;26;20008;-80
2024/04/08 04:30:56;;;;;;;7.35;2.50;;;;;;;;;;5388709;26;20004;-80
2024/04/08 04:33:21;;;;;;;1.60;1.38;;;;;;;;;;5390183;26;20003;-80
2024/04/08 04:35:59;;;;;;;4.25;1.80;;;;;;;;;;5355702;26;20517;-80
2024/04/08 04:38:26;;;;;;;3.25;1.83;;;;;;;;;;5361021;26;19996;-79
2024/04/08 04:41:04;;;;;;;5.15;2.25;;;;;;;;;;5375050;26;19996;-78
2024/04/08 04:43:30;;;;;;;6.28;1.98;;;;;;;;;;5374853;26;20011;-79
2024/04/08 04:45:56;;;;;;;2.20;1.33;;;;;;;;;;5393516;26;19992;-79
2024/04/08 04:48:21;;;;;;;6.55;3.17;;;;;;;;;;5396931;26;19995;-79
2024/04/08 04:50:47;;;;;;;10.52;4.00;;;;;;;;;;5392883;26;20000;-79
2024/04/08 04:53:12;;;;;;;9.20;3.47;;;;;;;;;;5394501;26;20027;-80
2024/04/08 04:55:37;;;;;;;8.25;3.40;;;;;;;;;;5367347;26;20962;-79
2024/04/08 04:58:03;;;;;;;6.80;3.55;;;;;;;;;;5391699;26;20171;-81
2024/04/08 05:00:31;;;;;;;8.93;2.10;;;;;;;;;;5364200;26;20072;-81
2024/04/08 05:02:58;;;;;;;4.63;1.73;;;;;;;;;;5378918;26;19996;-81
2024/04/08 05:05:23;;;;;;;6.88;2.88;;;;;;;;;;5373609;26;19996;-81
2024/04/08 05:07:48;;;;;;;8.23;3.65;;;;;;;;;;5374188;26;19995;-80
2024/04/08 05:10:14;;;;;;;6.38;2.50;;;;;;;;;;5367781;26;20000;-80
2024/04/08 05:12:39;;;;;;;3.63;2.20;;;;;;;;;;5364980;26;20106;-80
2024/04/08 05:15:05;;;;;;;7.00;3.25;;;;;;;;;;5401578;26;20066;-82
2024/04/08 05:17:30;;;;;;;7.05;2.40;;;;;;;;;;5382297;26;20012;-81
2024/04/08 05:20:01;;;;;;;7.97;2.28;;;;;;;;;;5378804;26;20008;-81
2024/04/08 05:22:28;;;;;;;4.05;2.00;;;;;;;;;;5360876;26;20000;-81
2024/04/08 05:24:53;;;;;;;3.92;2.38;;;;;;;;;;5311860;26;20272;-80
2024/04/08 05:27:19;;;;;;;9.13;2.70;;;;;;;;;;5377252;26;20072;-80
2024/04/08 05:29:44;;;;;;;7.03;2.75;;;;;;;;;;5360082;26;20000;-80
2024/04/08 05:32:09;;;;;;;5.80;2.80;;;;;;;;;;5396639;26;20006;-80
2024/04/08 05:34:35;;;;;;;4.35;1.90;;;;;;;;;;5379808;26;19999;-82
2024/04/08 05:37:00;;;;;;;4.47;2.20;;;;;;;;;;5386630;26;20382;-80
2024/04/08 05:39:26;;;;;;;8.68;2.45;;;;;;;;;;5403020;26;19999;-80
2024/04/08 05:41:51;;;;;;;6.55;2.50;;;;;;;;;;5389694;26;19999;-80
2024/04/08 05:44:16;;;;;;;7.13;2.10;;;;;;;;;;5387542;26;19993;-81
2024/04/08 05:46:42;;;;;;;4.63;2.40;;;;;;;;;;5389034;26;20081;-80
2024/04/08 05:49:09;;;;;;;5.03;2.03;;;;;;;;;;5360675;26;20003;-80
2024/04/08 05:51:34;;;;;;;10.15;2.85;;;;;;;;;;5348774;26;20004;-80
2024/04/08 05:53:59;;;;;;;6.95;2.53;;;;;;;;;;5384165;26;20050;-79
2024/04/08 05:56:25;;;;;;;6.28;2.10;;;;;;;;;;5399586;26;20058;-80
2024/04/08 05:58:50;;;;;;;5.03;2.25;;;;;;;;;;5393401;26;20000;-80
2024/04/08 06:01:16;;;;;;;5.53;2.28;;;;;;;;;;5369004;26;20000;-80
2024/04/08 06:03:41;;;;;;;6.20;2.67;;;;;;;;;;5367868;26;20023;-81
2024/04/08 06:06:07;;;;;;;2.60;2.10;;;;;;;;;;5367976;26;20007;-79
2024/04/08 06:08:32;;;;;;;5.75;2.92;;;;;;;;;;5357899;26;20001;-79
2024/04/08 06:11:04;;;;;;;9.63;3.03;;;;;;;;;;5373621;26;20000;-80
2024/04/08 06:13:30;;;;;;;5.63;2.50;;;;;;;;;;5373429;26;20000;-78
2024/04/08 06:15:57;;;;;;;5.75;2.42;;;;;;;;;;5380507;26;20000;-80
2024/04/08 06:18:23;;;;;;;2.72;2.47;;;;;;;;;;5370622;26;21543;-79
2024/04/08 06:20:58;;;;;;;6.70;2.78;;;;;;;;;;5366845;26;20000;-81
2024/04/08 06:23:24;;;;;;;8.00;2.45;;;;;;;;;;5370935;26;20000;-80
2024/04/08 06:26:05;;;;;;;5.45;1.90;;;;;;;;;;5383361;26;20074;-79
2024/04/08 06:28:30;;;;;;;4.72;2.40;;;;;;;;;;5376724;26;20048;-80
2024/04/08 06:30:56;;;;;;;5.78;2.53;;;;;;;;;;5377714;26;20101;-80
2024/04/08 06:33:22;;;;;;;4.47;2.00;;;;;;;;;;5362395;26;20460;-78
2024/04/08 06:35:47;;;;;;;3.90;2.03;;;;;;;;;;5376958;26;19993;-79
2024/04/08 06:38:13;;;;;;;4.10;2.33;;;;;;;;;;5360349;26;20453;-80
2024/04/08 06:40:42;;;;;;;6.15;2.10;;;;;;;;;;5377967;26;19999;-80
2024/04/08 06:43:08;;;;;;;5.38;2.20;;;;;;;;;;5364724;26;20004;-79
2024/04/08 06:45:33;;;;;;;6.63;2.28;;;;;;;;;;5347998;26;20011;-78
2024/04/08 06:47:58;;;;;;;5.30;2.30;;;;;;;;;;5364613;26;20350;-80
2024/04/08 06:50:24;;;;;;;4.40;2.33;;;;;;;;;;5369202;26;20015;-80
2024/04/08 06:52:49;;;;;;;5.78;1.95;;;;;;;;;;5375098;26;20463;-78
2024/04/08 06:55:16;;;;;;;7.95;2.25;;;;;;;;;;5380378;26;20066;-79
2024/04/08 06:57:48;;;;;;;3.28;2.33;;;;;;;;;;5382595;26;20031;-80
2024/04/08 07:00:13;;;;;;;8.57;3.08;;;;;;;;;;5375984;26;19996;-79
2024/04/08 07:02:40;;;;;;;6.55;2.63;;;;;;;;;;5378732;26;20024;-81
2024/04/08 07:05:06;;;;;;;8.27;3.47;;;;;;;;;;5375091;26;20722;-79
2024/04/08 07:07:31;;;;;;;6.45;2.20;;;;;;;;;;5378731;26;20046;-80
2024/04/08 07:09:57;;;;;;;8.30;2.58;;;;;;;;;;5381482;26;20016;-80
2024/04/08 07:12:22;;;;;;;8.07;2.50;;;;;;;;;;5390012;26;20021;-80
2024/04/08 07:14:54;;;;;;;6.43;1.98;;;;;;;;;;5381091;26;20009;-82
2024/04/08 07:17:20;;;;;;;7.60;2.33;;;;;;;;;;5374708;26;20000;-79
2024/04/08 07:19:46;;;;;;;9.02;2.13;;;;;;;;;;5378567;26;20069;-81
2024/04/08 07:22:11;;;;;;;5.55;2.70;;;;;;;;;;5382062;26;20011;-82
2024/04/08 07:24:37;;;;;;;3.50;2.03;;;;;;;;;;5379055;26;19999;-82
2024/04/08 07:27:05;;;;;;;6.25;2.50;;;;;;;;;;5379474;26;19996;-79
2024/04/08 07:29:31;;;;;;;8.10;3.30;;;;;;;;;;5372750;26;20512;-80
2024/04/08 07:31:56;;;;;;;4.60;2.42;;;;;;;;;;5384110;26;20036;-80
2024/04/08 07:34:22;;;;;;;8.80;2.90;;;;;;;;;;5375759;26;20396;-80
2024/04/08 07:36:47;;;;;;;7.47;3.03;;;;;;;;;;5370241;26;20125;-80
2024/04/08 07:39:12;;;;;;;7.18;2.58;;;;;;;;;;5374455;26;20036;-80
2024/04/08 07:41:38;;;;;;;5.63;2.40;;;;;;;;;;5375612;26;20019;-80
2024/04/08 07:44:03;;;;;;;8.27;2.97;;;;;;;;;;5378183;26;20000;-79
2024/04/08 07:46:29;;;;;;;8.15;2.50;;;;;;;;;;5372560;26;19996;-81
2024/04/08 07:48:54;;;;;;;6.68;2.70;;;;;;;;;;5375245;26;19996;-81
2024/04/08 07:51:20;;;;;;;7.95;2.90;;;;;;;;;;5375506;26;20001;-82
2024/04/08 07:53:45;;;;;;;11.82;2.85;;;;;;;;;;5376394;26;20014;-80
2024/04/08 07:56:11;;;;;;;5.88;3.75;;;;;;;;;;5379432;26;20012;-82
2024/04/08 07:58:36;;;;;;;9.13;2.60;;;;;;;;;;5381188;26;20038;-81
2024/04/08 08:01:03;;;;;;;6.32;2.30;;;;;;;;;;5380645;26;20000;-81
2024/04/08 08:03:28;;;;;;;6.45;2.78;;;;;;;;;;5388512;26;20000;-83
2024/04/08 08:05:55;;;;;;;7.68;2.53;;;;;;;;;;5381931;26;20011;-81
2024/04/08 08:08:21;;;;;;;4.82;2.00;;;;;;;;;;5375706;26;20697;-83
2024/04/08 08:10:46;;;;;;;6.00;2.72;;;;;;;;;;5392067;26;20044;-81
2024/04/08 08:13:12;;;;;;;4.40;2.15;;;;;;;;;;5374373;26;20012;-82
2024/04/08 08:15:38;;;;;;;5.75;2.30;;;;;;;;;;5377823;26;20000;-82
2024/04/08 08:18:03;;;;;;;7.15;2.17;;;;;;;;;;5372334;26;20003;-83
2024/04/08 08:20:30;;;;;;;4.82;2.50;;;;;;;;;;5383588;26;20004;-81
2024/04/08 08:23:00;;;;;;;4.25;2.10;;;;;;;;;;5376591;26;20000;-86
2024/04/08 08:25:26;;;;;;;4.35;2.10;;;;;;;;;;5389068;26;20063;-82
2024/04/08 08:27:51;;;;;;;5.47;1.98;;;;;;;;;;5374632;26;20005;-85
2024/04/08 08:30:17;;;;;;;6.55;2.28;;;;;;;;;;5381989;26;20747;-83
2024/04/08 08:32:43;;;;;;;90.40;7.47;;;;;;;;;;5379208;26;19992;-80
2024/04/08 08:35:08;;;;;;;4.85;1.80;;;;;;;;;;5369422;26;20000;-80
2024/04/08 08:37:33;;;;;;;2.95;1.88;;;;;;;;;;5363786;26;20536;-81
2024/04/08 08:39:59;;;;;;;4.38;1.92;;;;;;;;;;5372031;26;20004;-81
2024/04/08 08:42:28;;;;;;;7.25;2.60;;;;;;;;;;5372330;26;20028;-80
2024/04/08 08:44:56;;;;;;;7.43;2.72;;;;;;;;;;5372036;26;20012;-81
2024/04/08 08:47:22;;;;;;;8.18;1.70;;;;;;;;;;5377817;26;20051;-81
2024/04/08 08:49:55;;;;;;;5.47;1.85;;;;;;;;;;5382096;26;20008;-82
2024/04/08 08:52:21;;;;;;;7.80;2.20;;;;;;;;;;5381905;26;20011;-81
2024/04/08 08:54:47;;;;;;;6.95;1.95;;;;;;;;;;5380885;26;19995;-82
2024/04/08 08:57:13;;;;;;;8.13;1.85;;;;;;;;;;5376843;26;20977;-81
2024/04/08 08:59:39;;;;;;;7.82;2.17;;;;;;;;;;5382825;26;20006;-81
2024/04/08 09:02:05;;;;;;;4.72;1.55;;;;;;;;;;5382829;26;20968;-82
2024/04/08 09:04:30;;;;;;;5.53;1.88;;;;;;;;;;5375634;26;20011;-81
2024/04/08 09:06:56;;;;;;;5.05;2.15;;;;;;;;;;5365790;26;20081;-80
2024/04/08 09:09:21;;;;;;;6.18;1.92;;;;;;;;;;5372888;26;20356;-82
2024/04/08 09:11:50;;;;;;;58.95;7.18;;;;;;;;;;5377969;26;19993;-81
2024/04/08 09:14:16;;;;;;;7.43;1.55;;;;;;;;;;5377359;26;20345;-81
2024/04/08 09:16:42;;;;;;;4.95;1.50;;;;;;;;;;5380523;26;19992;-81
2024/04/08 09:19:08;;;;;;;6.15;1.60;;;;;;;;;;5381762;26;20007;-81
2024/04/08 09:21:34;;;;;;;2.78;1.52;;;;;;;;;;5378579;26;20003;-82
2024/04/08 09:24:03;;;;;;;4.30;1.65;;;;;;;;;;5376996;26;19992;-81
2024/04/08 09:26:29;;;;;;;8.88;1.70;;;;;;;;;;5376223;26;20465;-81
2024/04/08 09:28:54;;;;;;;6.03;1.60;;;;;;;;;;5383544;26;20007;-81
2024/04/08 09:31:20;;;;;;;6.40;1.27;;;;;;;;;;5384023;26;20059;-82
2024/04/08 09:33:46;;;;;;;7.05;2.33;;;;;;;;;;5374132;26;20011;-81
2024/04/08 09:36:12;;;;;;;5.13;1.73;;;;;;;;;;5361922;26;20445;-81
2024/04/08 09:38:39;;;;;;;12.45;1.92;;;;;;;;;;5369427;26;20076;-82
2024/04/08 09:41:06;;;;;;;4.00;1.50;;;;;;;;;;5371865;26;20073;-81
2024/04/08 09:43:31;;;;;;;6.15;1.92;;;;;;;;;;5370516;26;20007;-81
2024/04/08 09:45:59;;;;;;;3.55;1.40;;;;;;;;;;5371364;26;19996;-82
2024/04/08 09:48:25;;;;;;;3.45;1.25;;;;;;;;;;5369988;26;20028;-82
2024/04/08 09:50:54;;;;;;;3.65;1.50;;;;;;;;;;5374790;26;20000;-81
2024/04/08 09:53:19;;;;;;;2.80;1.38;;;;;;;;;;5367622;26;20013;-81
2024/04/08 09:55:49;;;;;;;5.07;1.48;;;;;;;;;;5374539;26;20419;-81
2024/04/08 09:58:18;;;;;;;8.03;1.83;;;;;;;;;;5373442;26;20503;-81
2024/04/08 10:00:45;;;;;;;4.05;1.27;;;;;;;;;;5371022;26;20012;-82
2024/04/08 10:03:15;;;;;;;7.15;1.60;;;;;;;;;;5371378;26;20396;-82
2024/04/08 10:05:43;;;;;;;4.90;1.38;;;;;;;;;;5369880;26;20385;-81
2024/04/08 10:08:10;;;;;;;11.07;1.80;;;;;;;;;;5378150;26;20389;-82
2024/04/08 10:10:37;;;;;;;7.53;1.55;;;;;;;;;;5369449;26;20000;-82
2024/04/08 10:13:02;;;;;;;6.38;1.50;;;;;;;;;;5365396;26;20007;-82
2024/04/08 10:15:32;;;;;;;7.35;1.42;;;;;;;;;;5371911;26;20007;-82
2024/04/08 10:17:58;;;;;;;;;;;;;;;;;;5382244;26;20004;-82
2024/04/08 10:20:24;;;;;;;3.17;1.10;;;;;;;;;;5377957;26;19933;-81
2024/04/08 10:22:49;;;;;;;4.78;1.30;;;;;;;;;;5370696;26;20042;-82
2024/04/08 10:25:35;;;;;;;46.80;4.47;;;;;;;;;;5377216;26;20017;-82
2024/04/08 10:28:11;;;;;;;3.28;1.30;;;;;;;;;;5373563;26;19993;-82
2024/04/08 10:30:38;;;;;;;5.75;1.67;;;;;;;;;;5362848;26;20043;-82
2024/04/08 10:33:04;;;;;;;5.03;1.33;;;;;;;;;;5377404;26;20008;-82
2024/04/08 10:35:30;;;;;;;4.85;1.50;;;;;;;;;;5375674;26;20420;-82
2024/04/08 10:37:55;;;;;;;5.50;1.50;;;;;;;;;;5374004;26;20004;-81
2024/04/08 10:40:25;;;;;;;6.97;1.73;;;;;;;;;;5375853;26;20003;-82
2024/04/08 10:42:51;;;;;;;5.60;1.42;;;;;;;;;;5376912;26;20074;-82
2024/04/08 10:45:17;;;;;;;5.05;1.52;;;;;;;;;;5382752;26;20080;-82
2024/04/08 10:47:43;;;;;;;6.05;1.52;;;;;;;;;;5373971;26;20036;-81
2024/04/08 10:50:09;;;;;;;7.07;1.80;;;;;;;;;;5379940;26;20807;-81
2024/04/08 10:52:39;;;;;;;3.92;1.45;;;;;;;;;;5384305;26;20719;-82
2024/04/08 10:55:05;;;;;;;5.40;1.60;;;;;;;;;;5370717;26;20007;-82
2024/04/08 10:57:30;;;;;;;6.90;1.70;;;;;;;;;;5365783;26;20004;-82
2024/04/08 10:59:55;;;;;;;9.93;1.67;;;;;;;;;;5374405;26;20001;-82
2024/04/08 11:02:21;;;;;;;2.20;1.13;;;;;;;;;;5386991;26;20015;-82
2024/04/08 11:04:47;;;;;;;5.97;1.50;;;;;;;;;;5388140;26;20073;-82
2024/04/08 11:07:13;;;;;;;2.53;1.05;;;;;;;;;;5378758;26;20143;-82
2024/04/08 11:09:39;;;;;;;6.30;1.63;;;;;;;;;;5379210;26;20380;-82
2024/04/08 11:12:05;;;;;;;3.63;1.25;;;;;;;;;;5372969;26;20011;-82
2024/04/08 11:14:30;;;;;;;7.47;1.50;;;;;;;;;;5384556;26;20000;-82
2024/04/08 11:16:59;;;;;;;2.65;1.10;;;;;;;;;;5379280;26;19996;-81
2024/04/08 11:19:28;;;;;;;6.95;1.70;;;;;;;;;;5385959;26;20138;-81
2024/04/08 11:21:55;;;;;;;8.13;1.73;;;;;;;;;;5385086;26;20429;-81
2024/04/08 11:24:22;;;;;;;10.32;1.40;;;;;;;;;;5387611;26;20014;-81
2024/04/08 11:26:48;;;;;;;4.22;1.30;;;;;;;;;;5387772;26;20010;-81
2024/04/08 11:29:13;;;;;;;8.90;1.58;;;;;;;;;;5399688;26;19996;-81
2024/04/08 11:31:38;;;;;;;6.40;1.58;;;;;;;;;;5381885;26;20567;-81
2024/04/08 11:34:04;;;;;;;6.05;1.27;;;;;;;;;;5384197;26;20346;-81
2024/04/08 11:36:29;;;;;;;2.45;1.27;;;;;;;;;;5384482;26;20584;-81
2024/04/08 11:38:55;;;;;;;6.63;1.00;;;;;;;;;;5386020;26;20008;-81
2024/04/08 11:41:20;;;;;;;5.85;1.20;;;;;;;;;;5372980;26;20778;-81
2024/04/08 11:43:46;;;;;;;6.28;1.70;;;;;;;;;;5374093;26;20012;-81
2024/04/08 11:46:12;;;;;;;6.85;1.67;;;;;;;;;;5383286;26;20011;-81
2024/04/08 11:48:40;;;;;;;9.50;1.73;;;;;;;;;;5394806;26;20004;-82
2024/04/08 11:51:06;;;;;;;5.47;1.55;;;;;;;;;;5398447;26;20023;-82
2024/04/08 11:53:32;;;;;;;9.88;1.85;;;;;;;;;;5387008;26;20026;-81
2024/04/08 11:55:57;;;;;;;10.43;1.55;;;;;;;;;;5369055;26;20017;-82
2024/04/08 11:58:23;;;;;;;4.75;1.27;;;;;;;;;;5375250;26;20008;-82
2024/04/08 12:00:48;;;;;;;7.60;1.90;;;;;;;;;;5376133;26;20022;-82
2024/04/08 12:03:13;;;;;;;8.32;1.65;;;;;;;;;;5374730;26;20019;-82
2024/04/08 12:05:39;;;;;;;4.78;1.83;;;;;;;;;;5379400;26;19996;-82
2024/04/08 12:08:04;;;;;;;5.50;1.80;;;;;;;;;;5372048;26;20023;-82
2024/04/08 12:10:30;;;;;;;8.60;2.03;;;;;;;;;;5384834;26;20007;-82
2024/04/08 12:13:19;;;;;;;8.30;1.80;;;;;;;;;;5396781;26;20314;-82
2024/04/08 12:15:46;;;;;;;5.28;1.50;;;;;;;;;;5386424;26;20014;-83
2024/04/08 12:18:11;;;;;;;8.55;2.28;;;;;;;;;;5379560;26;20015;-82
2024/04/08 12:20:36;;;;;;;4.85;1.80;;;;;;;;;;5384260;26;19996;-82
2024/04/08 12:23:02;;;;;;;10.30;2.53;;;;;;;;;;5387329;26;20074;-82
2024/04/08 12:25:28;;;;;;;6.05;1.70;;;;;;;;;;5393332;26;20022;-82
2024/04/08 12:27:53;;;;;;;9.40;1.70;;;;;;;;;;5378315;26;20000;-82
2024/04/08 12:30:18;;;;;;;7.55;1.45;;;;;;;;;;5383006;26;20008;-82
2024/04/08 12:32:44;;;;;;;9.30;2.03;;;;;;;;;;5385820;26;20470;-82
2024/04/08 12:35:09;;;;;;;8.00;1.50;;;;;;;;;;5392206;26;20456;-82
2024/04/08 12:37:35;;;;;;;6.90;1.92;;;;;;;;;;5383162;26;19993;-82
2024/04/08 12:40:00;;;;;;;10.25;2.15;;;;;;;;;;5381114;26;20461;-82
2024/04/08 12:42:26;;;;;;;7.18;1.73;;;;;;;;;;5389256;26;20000;-82
2024/04/08 12:44:51;;;;;;;7.80;1.60;;;;;;;;;;5380550;26;19996;-82
2024/04/08 12:47:17;;;;;;;9.20;1.70;;;;;;;;;;5383857;26;20031;-82
2024/04/08 12:49:42;;;;;;;12.50;2.20;;;;;;;;;;5380710;26;20050;-82
2024/04/08 12:52:08;;;;;;;10.77;2.03;;;;;;;;;;5393826;26;20000;-82
2024/04/08 12:54:33;;;;;;;7.95;1.58;;;;;;;;;;5389840;26;20461;-82
2024/04/08 12:56:59;;;;;;;10.80;2.42;;;;;;;;;;5380007;26;20679;-83
2024/04/08 12:59:24;;;;;;;8.90;2.28;;;;;;;;;;5382015;26;19996;-82
2024/04/08 13:01:50;;;;;;;6.93;1.77;;;;;;;;;;5379539;26;19992;-82
2024/04/08 13:04:16;;;;;;;8.45;1.90;;;;;;;;;;5383336;26;20000;-82
2024/04/08 13:06:42;;;;;;;10.48;2.47;;;;;;;;;;5341772;26;20457;-82
2024/04/08 13:09:07;;;;;;;10.15;1.85;;;;;;;;;;5383941;26;19999;-82
2024/04/08 13:11:33;;;;;;;8.57;1.48;;;;;;;;;;5382709;26;20000;-82
2024/04/08 13:13:58;;;;;;;8.45;1.80;;;;;;;;;;5378961;26;20000;-83
2024/04/08 13:16:24;;;;;;;5.82;1.30;;;;;;;;;;5393560;26;19999;-82
2024/04/08 13:18:49;;;;;;;6.57;1.70;;;;;;;;;;5387685;26;20005;-82
2024/04/08 13:21:15;;;;;;;11.65;2.35;;;;;;;;;;5389467;26;20011;-82
2024/04/08 13:23:41;;;;;;;9.32;1.98;;;;;;;;;;5397905;26;20016;-82
2024/04/08 13:26:09;;;;;;;10.90;2.17;;;;;;;;;;5377130;26;20024;-83
2024/04/08 13:28:35;;;;;;;7.97;1.50;;;;;;;;;;5378777;26;20947;-82
2024/04/08 13:31:00;;;;;;;8.35;1.83;;;;;;;;;;5376785;26;20000;-82
2024/04/08 13:33:26;;;;;;;10.18;1.85;;;;;;;;;;5373483;26;20011;-82
2024/04/08 13:35:51;;;;;;;7.90;1.80;;;;;;;;;;5387784;26;19992;-82
2024/04/08 13:38:16;;;;;;;7.05;1.98;;;;;;;;;;5389599;26;20015;-82
2024/04/08 13:40:42;;;;;;;7.65;1.60;;;;;;;;;;5387231;26;19992;-82
2024/04/08 13:43:08;;;;;;;24.88;3.28;;;;;;;;;;5381583;26;20073;-82
2024/04/08 13:45:33;;;;;;;12.23;2.20;;;;;;;;;;5389064;26;20023;-82
2024/04/08 13:47:58;;;;;;;8.05;1.83;;;;;;;;;;5376911;26;19999;-82
2024/04/08 13:50:24;;;;;;;10.23;1.80;;;;;;;;;;5386642;26;20008;-82
2024/04/08 13:52:49;;;;;;;5.43;1.40;;;;;;;;;;5379959;26;19996;-82
2024/04/08 13:55:15;;;;;;;10.88;1.83;;;;;;;;;;5384611;26;20016;-82
2024/04/08 13:57:40;;;;;;;14.38;2.40;;;;;;;;;;5381887;26;21129;-82
2024/04/08 14:00:09;;;;;;;7.63;1.50;;;;;;;;;;5387651;26;20101;-82
2024/04/08 14:02:34;;;;;;;14.52;2.40;;;;;;;;;;5382994;26;20000;-82
2024/04/08 14:05:00;;;;;;;6.78;1.98;;;;;;;;;;5384356;26;20010;-82
2024/04/08 14:07:25;;;;;;;9.02;2.00;;;;;;;;;;5386676;26;19996;-82
2024/04/08 14:09:50;;;;;;;8.13;1.95;;;;;;;;;;5390997;26;20000;-82
2024/04/08 14:12:16;;;;;;;20.60;2.50;;;;;;;;;;5393206;26;20093;-82
2024/04/08 14:14:41;;;;;;;7.90;1.65;;;;;;;;;;5380177;26;19999;-82
2024/04/08 14:17:07;;;;;;;11.00;2.33;;;;;;;;;;5377249;26;20073;-82
2024/04/08 14:19:32;;;;;;;6.60;1.60;;;;;;;;;;5380671;26;20015;-82
2024/04/08 14:21:57;;;;;;;8.68;1.73;;;;;;;;;;5373355;26;20768;-82
2024/04/08 14:24:23;;;;;;;15.40;1.85;;;;;;;;;;5380411;26;20362;-82
2024/04/08 14:26:48;;;;;;;10.07;1.52;;;;;;;;;;5388082;26;20076;-82
2024/04/08 14:29:13;;;;;;;7.38;1.50;;;;;;;;;;5376322;26;20000;-82
2024/04/08 14:31:39;;;;;;;9.85;2.00;;;;;;;;;;5383410;26;19995;-82
2024/04/08 14:34:04;;;;;;;9.50;1.90;;;;;;;;;;5386593;26;19999;-82
2024/04/08 14:36:30;;;;;;;9.38;2.40;;;;;;;;;;5365132;26;20090;-82